Time;durP1;ratioP1;P1;durP2;ratioP2;P2;SDS_P1;SDS_P2;PMS_P1;PMS_P2;Temp;Humidity;BMP_temperature;BMP_pressure;BME280_temperature;BME280_humidity;BME280_pressure;Samples;Min_cycle;Max_cycle;Signal;HPM_P1;HPM_P2
2022/04/08 00:05:28;;;;;;;5.55;1.13;;;8.70;99.90;;;;;;20836098;28;20659;-75
2022/04/08 00:15:33;;;;;;;2.03;1.23;;;8.40;99.90;;;;;;20836220;28;20029;-76
2022/04/08 00:25:34;;;;;;;8.25;1.42;;;8.30;99.90;;;;;;20834665;28;20111;-75
2022/04/08 00:35:35;;;;;;;6.53;1.47;;;8.30;99.90;;;;;;20834297;28;20476;-76
2022/04/08 00:45:36;;;;;;;6.33;1.77;;;8.10;99.90;;;;;;20834202;28;20040;-76
2022/04/08 00:55:38;;;;;;;6.57;1.57;;;8.10;99.90;;;;;;20839840;28;20053;-76
2022/04/08 01:05:39;;;;;;;5.75;2.10;;;8.10;99.90;;;;;;20830281;28;20033;-76
2022/04/08 01:15:40;;;;;;;;;;;7.90;99.90;;;;;;20831208;28;20547;-75
2022/04/08 01:25:41;;;;;;;10.03;2.10;;;7.90;99.90;;;;;;20829094;28;19938;-75
2022/04/08 01:35:41;;;;;;;13.57;2.53;;;7.80;99.90;;;;;;20829075;28;20861;-75
2022/04/08 01:45:42;;;;;;;12.90;2.63;;;7.70;99.90;;;;;;20828917;28;20442;-75
2022/04/08 01:55:44;;;;;;;18.70;3.03;;;7.70;99.90;;;;;;20827779;28;20369;-75
2022/04/08 02:05:44;;;;;;;;;;;7.70;99.90;;;;;;20827272;28;20038;-76
2022/04/08 02:15:46;;;;;;;12.37;2.77;;;7.60;99.90;;;;;;20826448;28;19913;-76
2022/04/08 02:25:47;;;;;;;13.88;2.85;;;7.60;99.90;;;;;;20826281;28;20272;-76
2022/04/08 02:35:48;;;;;;;11.23;3.38;;;7.60;99.90;;;;;;20825171;28;20060;-75
2022/04/08 02:45:49;;;;;;;10.77;3.87;;;7.50;99.90;;;;;;20832384;28;20397;-76
2022/04/08 02:55:50;;;;;;;15.00;3.80;;;7.50;99.90;;;;;;20824917;28;20041;-76
2022/04/08 03:05:51;;;;;;;17.60;3.43;;;7.60;99.90;;;;;;20823987;28;20041;-76
2022/04/08 03:15:52;;;;;;;11.70;4.30;;;7.50;99.90;;;;;;20823728;28;20075;-76
2022/04/08 03:25:53;;;;;;;15.77;4.68;;;7.50;99.90;;;;;;20823405;28;20148;-76
2022/04/08 03:35:54;;;;;;;14.53;5.33;;;7.50;99.90;;;;;;20823308;28;20034;-76
2022/04/08 03:45:55;;;;;;;9.37;4.30;;;7.50;99.90;;;;;;20828574;28;20029;-76
2022/04/08 03:55:56;;;;;;;9.00;3.75;;;7.50;99.90;;;;;;20837182;28;20032;-76
2022/04/08 04:05:57;;;;;;;20.97;4.93;;;7.40;99.90;;;;;;20856527;22;20065;-73
2022/04/08 04:15:57;;;;;;;15.33;3.73;;;7.40;99.90;;;;;;20836857;23;20045;-72
2022/04/08 04:25:58;;;;;;;12.70;4.57;;;7.30;99.90;;;;;;20833357;28;20071;-72
2022/04/08 04:36:00;;;;;;;15.73;5.40;;;7.30;99.90;;;;;;20832629;28;20132;-72
2022/04/08 04:46:03;;;;;;;24.00;4.22;;;7.30;99.90;;;;;;20833556;28;20036;-72
2022/04/08 04:56:04;;;;;;;17.27;4.38;;;7.40;99.90;;;;;;20832780;28;20072;-73
2022/04/08 05:06:05;;;;;;;20.30;5.32;;;7.40;99.90;;;;;;20831339;28;20041;-72
2022/04/08 05:16:06;;;;;;;22.80;5.87;;;7.30;99.90;;;;;;20831020;28;20033;-74
2022/04/08 05:26:07;;;;;;;20.23;5.87;;;7.40;99.90;;;;;;20812336;28;20029;-73
2022/04/08 05:36:07;;;;;;;13.27;5.60;;;7.40;99.90;;;;;;20810061;28;20034;-74
2022/04/08 05:46:08;;;;;;;14.03;5.83;;;7.40;99.90;;;;;;20823702;28;20118;-75
2022/04/08 05:56:09;;;;;;;15.20;5.80;;;7.40;99.90;;;;;;20810955;28;20041;-74
2022/04/08 06:06:10;;;;;;;9.73;4.87;;;7.40;99.90;;;;;;20808799;28;20033;-74
2022/04/08 06:16:11;;;;;;;15.87;5.20;;;7.40;99.90;;;;;;20826579;28;20032;-74
2022/04/08 06:26:14;;;;;;;17.57;5.17;;;7.50;99.90;;;;;;20826243;28;20055;-74
2022/04/08 06:36:15;;;;;;;14.07;4.93;;;7.50;99.90;;;;;;20807869;28;20041;-74
2022/04/08 06:46:16;;;;;;;18.37;10.47;;;7.70;99.90;;;;;;20790951;28;20029;-74
2022/04/08 06:56:17;;;;;;;12.17;6.60;;;7.70;99.90;;;;;;20807266;28;20503;-74
2022/04/08 07:06:18;;;;;;;10.77;5.07;;;7.90;99.90;;;;;;20806835;28;20080;-74
2022/04/08 07:16:18;;;;;;;9.93;4.47;;;7.80;99.90;;;;;;20823462;28;20029;-74
2022/04/08 07:26:21;;;;;;;10.03;3.27;;;8.00;99.90;;;;;;20804902;28;20026;-73
2022/04/08 07:36:21;;;;;;;11.32;2.65;;;8.10;99.90;;;;;;20838379;28;20033;-74
2022/04/08 07:46:22;;;;;;;4.80;2.10;;;8.20;99.90;;;;;;20839133;28;20035;-74
2022/04/08 07:56:23;;;;;;;7.23;2.90;;;8.40;99.90;;;;;;20817623;28;20056;-74
2022/04/08 08:06:24;;;;;;;9.93;2.40;;;8.30;99.90;;;;;;20834120;28;20510;-74
2022/04/08 08:16:25;;;;;;;7.87;3.67;;;8.20;99.90;;;;;;20823952;28;20034;-74
2022/04/08 08:26:26;;;;;;;10.20;4.50;;;8.10;99.90;;;;;;20831846;28;20454;-74
2022/04/08 08:36:27;;;;;;;7.50;4.27;;;8.30;99.90;;;;;;20820237;28;20398;-74
2022/04/08 08:46:30;;;;;;;6.77;2.43;;;8.30;99.90;;;;;;20833212;28;20311;-74
2022/04/08 08:56:32;;;;;;;4.63;1.73;;;8.50;99.90;;;;;;20832572;28;20034;-74
2022/04/08 09:06:41;;;;;;;;;;;8.80;99.90;;;;;;20832350;28;20167;-74
2022/04/08 09:16:42;;;;;;;4.07;1.20;;;8.80;99.90;;;;;;20830611;28;20297;-74
2022/04/08 09:26:43;;;;;;;1.53;1.07;;;9.00;99.90;;;;;;20830706;28;20033;-74
2022/04/08 09:36:44;;;;;;;2.20;1.17;;;9.10;99.90;;;;;;20829728;28;20063;-74
2022/04/08 09:46:45;;;;;;;1.73;1.27;;;9.30;99.90;;;;;;20828106;28;20033;-74
2022/04/08 09:56:46;;;;;;;5.90;1.87;;;9.40;99.90;;;;;;20810111;28;20083;-74
2022/04/08 10:06:47;;;;;;;2.13;1.17;;;9.30;99.90;;;;;;20879626;22;20044;-78
2022/04/08 10:16:52;;;;;;;4.35;1.20;;;9.50;99.90;;;;;;20922589;28;20044;-81
2022/04/08 10:27:09;;;;;;;3.60;1.25;;;10.00;99.90;;;;;;20916514;28;20029;-81
2022/04/08 10:37:21;;;;;;;10.50;4.88;;;10.20;99.90;;;;;;20917637;28;20025;-81
2022/04/08 10:47:23;;;;;;;4.47;1.15;;;10.20;99.90;;;;;;20921002;28;20043;-81
2022/04/08 10:57:34;;;;;;;7.07;2.72;;;10.70;99.90;;;;;;20924204;28;20029;-79
2022/04/08 11:07:40;;;;;;;1.80;1.20;;;11.10;99.90;;;;;;20929956;28;20116;-78
2022/04/08 11:17:41;;;;;;;5.32;0.50;;;11.20;99.90;;;;;;20930876;28;20032;-81
2022/04/08 11:27:42;;;;;;;3.22;0.50;;;11.50;99.90;;;;;;20934393;28;20513;-79
2022/04/08 11:37:43;;;;;;;0.50;0.50;;;11.60;99.90;;;;;;20937906;28;20474;-80
2022/04/08 11:47:48;;;;;;;1.97;0.50;;;11.70;99.90;;;;;;20936743;28;20394;-79
2022/04/08 11:57:49;;;;;;;1.75;0.63;;;11.70;99.90;;;;;;20918543;28;20072;-80
2022/04/08 12:08:01;;;;;;;0.95;0.47;;;11.80;99.90;;;;;;20883023;28;20276;-80
2022/04/08 12:18:06;;;;;;;1.30;0.50;;;11.90;99.90;;;;;;20947591;28;20045;-76
2022/04/08 12:28:14;;;;;;;4.03;0.43;;;11.90;99.90;;;;;;20946300;28;20279;-76
2022/04/08 12:38:19;;;;;;;0.55;0.30;;;12.00;99.90;;;;;;20960256;28;20044;-80
2022/04/08 12:48:20;;;;;;;2.72;0.40;;;12.10;99.90;;;;;;20874572;28;20490;-79
2022/04/08 12:58:21;;;;;;;0.97;0.27;;;12.40;99.90;;;;;;20865697;28;20528;-78
2022/04/08 13:08:23;;;;;;;1.70;0.50;;;12.00;99.90;;;;;;20901060;28;20563;-78
2022/04/08 13:18:24;;;;;;;3.58;0.40;;;11.40;99.90;;;;;;20894735;28;20037;-78
2022/04/08 13:28:25;;;;;;;1.50;0.47;;;11.00;99.90;;;;;;20904891;28;20055;-77
2022/04/08 13:38:26;;;;;;;1.80;0.87;;;10.70;99.90;;;;;;20952706;28;20024;-76
2022/04/08 13:48:27;;;;;;;4.03;0.80;;;10.70;99.90;;;;;;20936455;28;20044;-77
2022/04/08 13:58:28;;;;;;;2.83;0.57;;;10.70;99.90;;;;;;20863172;28;20032;-78
2022/04/08 14:08:29;;;;;;;1.87;0.60;;;10.80;99.90;;;;;;20923812;28;20037;-78
2022/04/08 14:18:30;;;;;;;0.75;0.40;;;11.10;99.90;;;;;;20928764;28;20050;-79
2022/04/08 14:28:32;;;;;;;0.70;0.50;;;11.20;99.90;;;;;;21007066;28;20025;-80
2022/04/08 14:38:33;;;;;;;4.03;0.70;;;11.00;99.90;;;;;;21005976;28;20492;-81
2022/04/08 14:48:35;;;;;;;2.97;1.00;;;11.00;99.90;;;;;;21005579;28;20554;-81
2022/04/08 14:58:36;;;;;;;2.93;0.70;;;10.90;99.90;;;;;;20936538;28;20513;-81
2022/04/08 15:08:37;;;;;;;1.10;0.80;;;11.00;99.90;;;;;;20925687;28;20039;-78
2022/04/08 15:18:38;;;;;;;2.20;0.70;;;10.90;99.90;;;;;;20957929;28;20302;-78
2022/04/08 15:28:39;;;;;;;2.83;0.70;;;11.10;99.90;;;;;;20901616;28;20049;-77
2022/04/08 15:38:40;;;;;;;1.33;0.53;;;11.50;99.90;;;;;;20913246;28;20033;-78
2022/04/08 15:48:41;;;;;;;2.83;0.40;;;12.00;99.90;;;;;;20906585;28;20064;-80
2022/04/08 15:58:42;;;;;;;0.17;0.17;;;12.40;99.90;;;;;;20898739;28;20131;-77
2022/04/08 16:08:43;;;;;;;0.33;0.30;;;12.60;99.90;;;;;;20854026;22;20546;-75
2022/04/08 16:18:44;;;;;;;0.43;0.40;;;12.60;99.90;;;;;;20773666;28;20480;-75
2022/04/08 16:28:45;;;;;;;8.97;3.77;;;12.50;99.90;;;;;;20731147;28;20070;-75
2022/04/08 16:38:45;;;;;;;1.07;0.53;;;12.50;99.90;;;;;;20733485;28;20451;-75
2022/04/08 16:48:46;;;;;;;1.33;1.03;;;12.40;99.90;;;;;;20780359;28;20793;-75
2022/04/08 16:58:47;;;;;;;0.83;0.50;;;12.10;99.90;;;;;;20763698;28;20408;-74
2022/04/08 17:08:48;;;;;;;0.77;0.60;;;12.10;99.90;;;;;;20732916;28;20037;-75
2022/04/08 17:18:49;;;;;;;0.90;0.47;;;12.10;99.90;;;;;;20750138;28;20044;-75
2022/04/08 17:28:49;;;;;;;0.87;0.40;;;11.90;99.90;;;;;;20741647;28;20033;-75
2022/04/08 17:38:50;;;;;;;1.23;0.67;;;11.80;99.90;;;;;;20741139;28;20040;-75
2022/04/08 17:48:58;;;;;;;1.93;0.80;;;11.70;99.90;;;;;;20738341;28;20519;-75
2022/04/08 17:58:59;;;;;;;2.13;1.10;;;11.60;99.90;;;;;;20711280;28;20438;-74
2022/04/08 18:08:59;;;;;;;7.67;3.63;;;11.50;99.90;;;;;;20737963;28;20026;-75
2022/04/08 18:19:00;;;;;;;5.00;2.03;;;11.40;99.90;;;;;;20727100;28;20018;-75
2022/04/08 18:29:01;;;;;;;4.50;0.80;;;11.20;99.90;;;;;;20742757;28;20036;-75
2022/04/08 18:39:02;;;;;;;3.60;1.17;;;11.40;99.90;;;;;;20743540;28;20121;-75
2022/04/08 18:49:06;;;;;;;3.47;1.77;;;11.80;99.90;;;;;;20743108;28;20432;-74
2022/04/08 18:59:07;;;;;;;8.38;2.72;;;12.20;99.90;;;;;;20742622;28;20033;-74
2022/04/08 19:09:08;;;;;;;5.40;1.90;;;12.50;99.90;;;;;;20742225;28;20029;-74
2022/04/08 19:19:09;;;;;;;1.37;1.17;;;12.50;99.90;;;;;;20752927;28;20033;-74
2022/04/08 19:29:12;;;;;;;4.07;1.00;;;12.90;99.90;;;;;;20757288;28;20065;-75
2022/04/08 19:39:13;;;;;;;4.85;0.95;;;12.90;99.90;;;;;;20755067;28;20038;-75
2022/04/08 19:49:14;;;;;;;2.37;1.10;;;12.90;99.90;;;;;;20755552;28;20061;-75
2022/04/08 19:59:15;;;;;;;1.37;0.77;;;13.20;99.90;;;;;;20755376;28;20025;-75
2022/04/08 20:09:19;;;;;;;3.67;0.93;;;13.30;99.90;;;;;;20766747;28;20032;-75
2022/04/08 20:19:24;;;;;;;1.85;0.52;;;13.40;99.90;;;;;;20746051;28;20029;-75
2022/04/08 20:29:25;;;;;;;3.75;0.73;;;13.50;99.90;;;;;;20734551;28;20053;-75
2022/04/08 20:39:26;;;;;;;0.93;0.75;;;13.60;99.90;;;;;;20734516;28;20036;-75
2022/04/08 20:49:27;;;;;;;0.97;0.70;;;13.60;99.90;;;;;;20751328;28;20061;-74
2022/04/08 20:59:28;;;;;;;1.40;0.67;;;13.70;99.90;;;;;;20732816;28;20045;-75
2022/04/08 21:09:29;;;;;;;3.87;0.90;;;13.60;99.90;;;;;;20749458;28;20401;-75
2022/04/08 21:19:30;;;;;;;1.90;0.70;;;13.60;99.90;;;;;;20748782;28;20080;-75
2022/04/08 21:29:32;;;;;;;2.97;0.67;;;13.60;99.90;;;;;;20731460;28;20145;-75
2022/04/08 21:39:33;;;;;;;2.17;0.60;;;13.90;99.90;;;;;;20747626;28;20109;-75
2022/04/08 21:49:34;;;;;;;3.90;0.60;;;13.70;99.90;;;;;;20746534;28;20459;-75
2022/04/08 21:59:35;;;;;;;3.57;0.73;;;13.50;99.90;;;;;;20745885;28;20192;-75
2022/04/08 22:09:36;;;;;;;2.33;0.70;;;13.10;99.90;;;;;;20773258;23;20046;-79
2022/04/08 22:19:37;;;;;;;1.53;0.60;;;12.30;99.90;;;;;;20764258;28;20124;-77
2022/04/08 22:29:38;;;;;;;2.63;0.50;;;11.80;99.90;;;;;;20765007;28;20058;-79
2022/04/08 22:39:38;;;;;;;1.67;0.70;;;11.70;99.90;;;;;;20768020;28;20033;-78
2022/04/08 22:49:39;;;;;;;4.80;0.70;;;11.40;99.90;;;;;;20745643;28;20034;-78
2022/04/08 22:59:43;;;;;;;1.80;0.67;;;10.90;99.90;;;;;;20749045;28;20050;-77
2022/04/08 23:09:44;;;;;;;1.65;0.57;;;10.60;99.90;;;;;;20732667;28;20045;-73
2022/04/08 23:19:45;;;;;;;0.47;0.40;;;10.70;99.90;;;;;;20723411;28;20034;-76
2022/04/08 23:29:45;;;;;;;3.83;0.57;;;10.80;99.90;;;;;;20722283;28;20030;-75
2022/04/08 23:39:47;;;;;;;0.63;0.30;;;10.90;99.90;;;;;;20759097;28;20042;-76
2022/04/08 23:49:48;;;;;;;1.23;0.28;;;10.90;99.90;;;;;;20791567;28;20115;-75
2022/04/08 23:59:48;;;;;;;1.40;0.27;;;10.70;99.90;;;;;;20755045;28;20025;-76
